PWSweather.com
Personal Weather Stations
Station Observations

ThassosGR

Lat: 40.743206, Lon: 24.577205

Elevation: 150

Station Type:

http://www.realestate-thassos.com/weather-thassos/

Latest ConditionsUpdated 7:45:35 AM GMT+02:02 Thursday, Mar 23, 2017
Currently Today's Max Today's Min Today's Average
Temperature 57.7°F14.3°C 57.7°F14.3°C 48.4°F9.1°C 50.8°F10.4°C
Dew Point 52.0°F11.1°C 52.0°F11.1°C 43.8°F6.6°C 44.7°F7.1°C
Winds Calm Calm 3.1 mph SSE5.0 kmh SSE - 1.7 mph 2.7 kmh
Wind Gusts 3.1 mph5.0 kmh 6.0 mph9.7 kmh - -
Humidity 81% 85% 73% 80%
Pressure 29.76 in1007.8 mb 29.76 in1007.8 mb 29.58 in1001.7 mb -
Hour Temp Dew Point Humidity Winds Wind Gusts Pressure Precip Precip Rate Daily Precip Total
07:45 AM 57.7°F14.3°C 52.0°F11.1°C 81% Calm Calm 3.1 mph5.0 kmh 29.76 in1007.8 mb 0.00 in0.0 mm 0.00 in0.0 mm 0.00 in0.0 mm
07:31 AM 50.4°F10.2°C 45.7°F7.6°C 84% 2.2 mph SE3.5 kmh SE 3.8 mph6.1 kmh 29.76 in1007.8 mb 0.00 in0.0 mm 0.00 in0.0 mm 0.00 in0.0 mm
07:17 AM 49.3°F9.6°C 45.0°F7.2°C 85% 1.6 mph SE2.6 kmh SE 4.5 mph7.2 kmh 29.76 in1007.8 mb 0.00 in0.0 mm 0.00 in0.0 mm 0.00 in0.0 mm
07:03 AM 49.1°F9.5°C 44.8°F7.1°C 85% 2.2 mph SE3.5 kmh SE 5.4 mph8.7 kmh 29.76 in1007.8 mb 0.00 in0.0 mm 0.00 in0.0 mm 0.00 in0.0 mm
06:49 AM 48.7°F9.3°C 44.1°F6.7°C 84% 1.6 mph SE2.6 kmh SE 3.8 mph6.1 kmh 29.75 in1007.5 mb 0.00 in0.0 mm 0.00 in0.0 mm 0.00 in0.0 mm
06:35 AM 48.7°F9.3°C 44.1°F6.7°C 84% 2.2 mph SE3.5 kmh SE 4.5 mph7.2 kmh 29.75 in1007.5 mb 0.00 in0.0 mm 0.00 in0.0 mm 0.00 in0.0 mm
06:21 AM 48.6°F9.2°C 44.0°F6.7°C 84% 2.2 mph SSE3.5 kmh SSE 3.8 mph6.1 kmh 29.74 in1007.1 mb 0.00 in0.0 mm 0.00 in0.0 mm 0.00 in0.0 mm
06:07 AM 48.6°F9.2°C 44.0°F6.7°C 84% 1.6 mph SE2.6 kmh SE 4.5 mph7.2 kmh 29.73 in1006.8 mb 0.00 in0.0 mm 0.00 in0.0 mm 0.00 in0.0 mm
05:53 AM 48.4°F9.1°C 43.8°F6.6°C 84% 1.6 mph SSE2.6 kmh SSE 4.5 mph7.2 kmh 29.73 in1006.8 mb 0.00 in0.0 mm 0.00 in0.0 mm 0.00 in0.0 mm
05:39 AM 48.7°F9.3°C 44.1°F6.7°C 84% 2.2 mph SE3.5 kmh SE 4.5 mph7.2 kmh 29.72 in1006.4 mb 0.00 in0.0 mm 0.00 in0.0 mm 0.00 in0.0 mm
05:25 AM 48.9°F9.4°C 44.3°F6.8°C 84% 1.6 mph SE2.6 kmh SE 3.1 mph5.0 kmh 29.72 in1006.4 mb 0.00 in0.0 mm 0.00 in0.0 mm 0.00 in0.0 mm
05:11 AM 49.3°F9.6°C 44.7°F7.1°C 84% 1.6 mph SE2.6 kmh SE 3.1 mph5.0 kmh 29.71 in1006.1 mb 0.00 in0.0 mm 0.00 in0.0 mm 0.00 in0.0 mm
04:57 AM 49.3°F9.6°C 44.7°F7.1°C 84% 1.6 mph SE2.6 kmh SE 3.1 mph5.0 kmh 29.71 in1006.1 mb 0.00 in0.0 mm 0.00 in0.0 mm 0.00 in0.0 mm
04:43 AM 49.5°F9.7°C 44.8°F7.1°C 84% 1.6 mph SE2.6 kmh SE 3.8 mph6.1 kmh 29.70 in1005.8 mb 0.00 in0.0 mm 0.00 in0.0 mm 0.00 in0.0 mm
04:29 AM 49.6°F9.8°C 45.0°F7.2°C 84% 1.6 mph SE2.6 kmh SE 6.0 mph9.7 kmh 29.69 in1005.4 mb 0.00 in0.0 mm 0.00 in0.0 mm 0.00 in0.0 mm
04:15 AM 49.5°F9.7°C 44.8°F7.1°C 84% 2.2 mph SE3.5 kmh SE 4.5 mph7.2 kmh 29.68 in1005.1 mb 0.00 in0.0 mm 0.00 in0.0 mm 0.00 in0.0 mm
04:01 AM 49.3°F9.6°C 44.3°F6.8°C 83% 2.2 mph SE3.5 kmh SE 3.8 mph6.1 kmh 29.68 in1005.1 mb 0.00 in0.0 mm 0.00 in0.0 mm 0.00 in0.0 mm
03:47 AM 49.5°F9.7°C 43.9°F6.6°C 81% 1.6 mph SE2.6 kmh SE 3.1 mph5.0 kmh 29.67 in1004.7 mb 0.00 in0.0 mm 0.00 in0.0 mm 0.00 in0.0 mm
03:33 AM 50.0°F10.0°C 44.1°F6.7°C 80% 2.2 mph SE3.5 kmh SE 3.8 mph6.1 kmh 29.67 in1004.7 mb 0.00 in0.0 mm 0.00 in0.0 mm 0.00 in0.0 mm
03:19 AM 50.4°F10.2°C 43.8°F6.6°C 78% Calm Calm 3.1 mph5.0 kmh 29.66 in1004.4 mb 0.00 in0.0 mm 0.00 in0.0 mm 0.00 in0.0 mm
03:05 AM 50.9°F10.5°C 44.0°F6.7°C 77% Calm Calm 3.8 mph6.1 kmh 29.66 in1004.4 mb 0.00 in0.0 mm 0.00 in0.0 mm 0.00 in0.0 mm
02:51 AM 51.3°F10.7°C 44.0°F6.7°C 76% 1.6 mph SE2.6 kmh SE 3.1 mph5.0 kmh 29.66 in1004.4 mb 0.00 in0.0 mm 0.00 in0.0 mm 0.00 in0.0 mm
02:37 AM 51.8°F11.0°C 43.8°F6.6°C 74% 0.7 mph SE1.1 kmh SE 3.8 mph6.1 kmh 29.65 in1004.1 mb 0.00 in0.0 mm 0.00 in0.0 mm 0.00 in0.0 mm
02:23 AM 52.3°F11.3°C 44.3°F6.8°C 74% 0.7 mph SSE1.1 kmh SSE 3.8 mph6.1 kmh 29.65 in1004.1 mb 0.00 in0.0 mm 0.00 in0.0 mm 0.00 in0.0 mm
02:09 AM 52.7°F11.5°C 44.3°F6.8°C 73% 2.2 mph SE3.5 kmh SE 3.8 mph6.1 kmh 29.65 in1004.1 mb 0.00 in0.0 mm 0.00 in0.0 mm 0.00 in0.0 mm
01:55 AM 52.5°F11.4°C 44.5°F6.9°C 74% 2.2 mph SE3.5 kmh SE 4.5 mph7.2 kmh 29.64 in1003.7 mb 0.00 in0.0 mm 0.00 in0.0 mm 0.00 in0.0 mm
01:41 AM 52.3°F11.3°C 44.3°F6.8°C 74% 2.2 mph SE3.5 kmh SE 4.5 mph7.2 kmh 29.63 in1003.4 mb 0.00 in0.0 mm 0.00 in0.0 mm 0.00 in0.0 mm
01:27 AM 52.7°F11.5°C 44.7°F7.1°C 74% 3.1 mph SSE5.0 kmh SSE 5.4 mph8.7 kmh 29.63 in1003.4 mb 0.00 in0.0 mm 0.00 in0.0 mm 0.00 in0.0 mm
01:13 AM 52.5°F11.4°C 44.8°F7.1°C 75% 2.2 mph SE3.5 kmh SE 3.8 mph6.1 kmh 29.62 in1003.0 mb 0.00 in0.0 mm 0.00 in0.0 mm 0.00 in0.0 mm
12:59 AM 52.5°F11.4°C 44.5°F6.9°C 74% 2.2 mph SE3.5 kmh SE 3.8 mph6.1 kmh 29.62 in1003.0 mb 0.00 in0.0 mm 0.00 in0.0 mm 0.00 in0.0 mm
12:45 AM 52.7°F11.5°C 44.7°F7.1°C 74% 2.2 mph SE3.5 kmh SE 4.5 mph7.2 kmh 29.61 in1002.7 mb 0.00 in0.0 mm 0.00 in0.0 mm 0.00 in0.0 mm
12:31 AM 52.7°F11.5°C 44.7°F7.1°C 74% 1.6 mph SE2.6 kmh SE 3.8 mph6.1 kmh 29.60 in1002.4 mb 0.00 in0.0 mm 0.00 in0.0 mm 0.00 in0.0 mm
12:17 AM 53.1°F11.7°C 44.6°F7.0°C 73% 1.6 mph SE2.6 kmh SE 4.5 mph7.2 kmh 29.59 in1002.0 mb 0.00 in0.0 mm 0.00 in0.0 mm 0.00 in0.0 mm
12:03 AM 53.1°F11.7°C 45.0°F7.2°C 74% 2.2 mph SE3.5 kmh SE 3.8 mph6.1 kmh 29.58 in1001.7 mb 0.00 in0.0 mm 0.00 in0.0 mm 0.00 in0.0 mm